Time;durP1;ratioP1;P1;durP2;ratioP2;P2;SDS_P1;SDS_P2;PMS_P1;PMS_P2;Temp;Humidity;BMP_temperature;BMP_pressure;BME280_temperature;BME280_humidity;BME280_pressure;Samples;Min_cycle;Max_cycle;Signal;HPM_P1;HPM_P2
2022/10/10 00:00:40;;;;;;;7.85;5.95;;;8.10;99.90;;;;;;5074468;28;20055;-53
2022/10/10 00:03:07;;;;;;;11.18;6.90;;;8.00;99.90;;;;;;5078984;28;20079;-51
2022/10/10 00:05:35;;;;;;;7.97;5.80;;;8.00;99.90;;;;;;5022191;28;20507;-51
2022/10/10 00:08:01;;;;;;;12.68;5.60;;;8.00;99.90;;;;;;5055920;28;20084;-50
2022/10/10 00:10:27;;;;;;;9.70;6.40;;;7.90;99.90;;;;;;5077156;28;20044;-53
2022/10/10 00:12:53;;;;;;;12.32;5.53;;;8.00;99.90;;;;;;5075656;28;20040;-52
2022/10/10 00:15:20;;;;;;;8.55;5.97;;;7.90;99.90;;;;;;5078054;28;20123;-38
2022/10/10 00:17:46;;;;;;;7.15;5.68;;;7.90;99.90;;;;;;5077209;28;20113;-39
2022/10/10 00:20:15;;;;;;;8.80;5.78;;;7.80;99.90;;;;;;5067737;28;20056;-39
2022/10/10 00:22:41;;;;;;;8.27;5.88;;;7.80;99.90;;;;;;5041709;28;20052;-39
2022/10/10 00:25:08;;;;;;;10.13;6.65;;;7.70;99.90;;;;;;5056722;28;20052;-39
2022/10/10 00:27:35;;;;;;;8.70;6.20;;;7.70;99.90;;;;;;5076008;28;20110;-39
2022/10/10 00:30:06;;;;;;;7.80;5.80;;;7.60;99.90;;;;;;5075301;28;20044;-39
2022/10/10 00:32:32;;;;;;;9.47;5.70;;;7.60;99.90;;;;;;5066552;28;20036;-38
2022/10/10 00:34:58;;;;;;;9.15;6.10;;;7.60;99.90;;;;;;5068309;28;20490;-39
2022/10/10 00:37:25;;;;;;;10.15;6.70;;;7.60;99.90;;;;;;5076487;28;20048;-38
2022/10/10 00:39:51;;;;;;;10.00;6.22;;;7.50;99.90;;;;;;5077825;28;20526;-49
2022/10/10 00:42:18;;;;;;;8.00;6.32;;;7.50;99.90;;;;;;5066979;28;20544;-40
2022/10/10 00:44:46;;;;;;;10.27;6.78;;;7.50;99.90;;;;;;5074043;28;20040;-39
2022/10/10 00:47:13;;;;;;;8.52;6.00;;;7.50;99.90;;;;;;5039456;28;20698;-38
2022/10/10 00:49:43;;;;;;;7.57;6.30;;;7.50;99.90;;;;;;5058777;28;20083;-38
2022/10/10 00:52:11;;;;;;;7.53;6.18;;;7.50;99.90;;;;;;5058060;28;20521;-50
2022/10/10 00:54:38;;;;;;;8.52;6.43;;;7.50;99.90;;;;;;5060738;28;20059;-49
2022/10/10 00:57:12;;;;;;;10.07;6.57;;;7.50;99.90;;;;;;5072666;28;20084;-50
2022/10/10 00:59:40;;;;;;;7.97;6.63;;;7.50;99.90;;;;;;5055916;28;20075;-49
2022/10/10 01:02:07;;;;;;;10.75;7.18;;;7.40;99.90;;;;;;5073107;28;20040;-50
2022/10/10 01:04:43;;;;;;;8.40;6.07;;;7.40;99.90;;;;;;5055954;28;20056;-48
2022/10/10 01:07:24;;;;;;;7.38;6.53;;;7.50;99.90;;;;;;5062251;28;20115;-51
2022/10/10 01:09:53;;;;;;;8.90;6.57;;;7.50;99.90;;;;;;5053938;28;20044;-52
2022/10/10 01:12:23;;;;;;;7.93;6.30;;;7.50;99.90;;;;;;5063458;28;20058;-48
2022/10/10 01:15:27;;;;;;;10.45;6.72;;;7.40;99.90;;;;;;5080040;28;20052;-49
2022/10/10 01:18:27;;;;;;;9.05;6.75;;;7.40;99.90;;;;;;5075709;28;20055;-52
2022/10/10 01:21:31;;;;;;;8.85;6.85;;;7.40;99.90;;;;;;5057540;28;20066;-50
2022/10/10 01:24:46;;;;;;;9.05;7.00;;;7.40;99.90;;;;;;5074524;28;20145;-50
2022/10/10 01:27:20;;;;;;;7.57;6.68;;;7.40;99.90;;;;;;5068591;28;20126;-53
2022/10/10 01:29:51;;;;;;;8.68;7.40;;;7.40;99.90;;;;;;5081835;28;20093;-52
2022/10/10 01:32:41;;;;;;;10.47;7.53;;;7.30;99.90;;;;;;5061799;28;20062;-51
2022/10/10 01:35:55;;;;;;;9.60;6.38;;;7.30;99.90;;;;;;5080799;28;20775;-53
2022/10/10 01:38:31;;;;;;;10.27;7.63;;;7.30;99.90;;;;;;5071461;28;20540;-50
2022/10/10 01:41:23;;;;;;;12.00;7.45;;;7.30;99.90;;;;;;5096572;28;20393;-52
2022/10/10 01:43:53;;;;;;;7.65;6.85;;;7.20;99.90;;;;;;5081212;28;20139;-50
2022/10/10 01:46:19;;;;;;;9.32;7.05;;;7.20;99.90;;;;;;5081536;28;20036;-52
2022/10/10 01:48:49;;;;;;;11.10;7.00;;;7.20;99.90;;;;;;5078655;28;20860;-51
2022/10/10 01:51:47;;;;;;;11.38;7.88;;;7.20;99.90;;;;;;5078850;28;20052;-51
2022/10/10 01:54:35;;;;;;;8.85;7.03;;;7.10;99.90;;;;;;5063452;28;20476;-53
2022/10/10 01:57:09;;;;;;;10.65;7.90;;;7.10;99.90;;;;;;5071486;28;20044;-52
2022/10/10 01:59:57;;;;;;;10.25;7.63;;;7.10;99.90;;;;;;5060107;28;20048;-52
2022/10/10 02:02:49;;;;;;;11.20;7.90;;;7.10;99.90;;;;;;5077551;28;20633;-51
2022/10/10 02:05:22;;;;;;;10.07;8.25;;;7.00;99.90;;;;;;5063898;28;20866;-51
2022/10/10 02:07:54;;;;;;;11.30;7.43;;;7.00;99.90;;;;;;5094759;28;20048;-49
2022/10/10 02:10:30;;;;;;;11.05;8.00;;;7.00;99.90;;;;;;5079493;28;20040;-51
2022/10/10 02:12:59;;;;;;;9.70;7.68;;;7.00;99.90;;;;;;5072804;28;20589;-49
2022/10/10 02:15:30;;;;;;;9.25;7.82;;;7.00;99.90;;;;;;5078333;28;20048;-48
2022/10/10 02:17:57;;;;;;;9.15;7.78;;;7.00;99.90;;;;;;5078028;28;20032;-47
2022/10/10 02:20:26;;;;;;;13.38;7.93;;;7.00;99.90;;;;;;5075435;28;20216;-48
2022/10/10 02:22:54;;;;;;;10.32;7.65;;;7.00;99.90;;;;;;5060011;28;20040;-51
2022/10/10 02:25:24;;;;;;;10.32;7.38;;;7.10;99.90;;;;;;5079994;28;20044;-48
2022/10/10 02:28:36;;;;;;;9.43;7.82;;;7.10;99.90;;;;;;5096400;28;20838;-50
2022/10/10 02:31:07;;;;;;;8.25;7.00;;;7.10;99.90;;;;;;5043091;28;20044;-52
2022/10/10 02:33:46;;;;;;;9.73;8.07;;;7.00;99.90;;;;;;5075203;28;20044;-51
2022/10/10 02:36:15;;;;;;;7.93;7.13;;;7.00;99.90;;;;;;5080374;28;20044;-49
2022/10/10 02:38:42;;;;;;;9.52;7.88;;;7.00;99.90;;;;;;5074284;28;20059;-49
2022/10/10 02:41:13;;;;;;;10.27;7.93;;;7.00;99.90;;;;;;5080400;28;20047;-50
2022/10/10 02:43:40;;;;;;;17.50;8.07;;;7.00;99.90;;;;;;5060959;28;21012;-51
2022/10/10 02:46:10;;;;;;;10.73;7.55;;;7.00;99.90;;;;;;5041755;28;20044;-49
2022/10/10 02:48:36;;;;;;;8.40;7.40;;;7.00;99.90;;;;;;5072544;28;20052;-51
2022/10/10 02:51:03;;;;;;;10.65;7.63;;;6.90;99.90;;;;;;5069894;28;20041;-50
2022/10/10 02:53:29;;;;;;;9.80;7.95;;;6.90;99.90;;;;;;5063004;28;20756;-48
2022/10/10 02:55:55;;;;;;;9.90;7.90;;;6.90;99.90;;;;;;5037705;28;20130;-49
2022/10/10 02:58:22;;;;;;;12.15;8.27;;;6.90;99.90;;;;;;5076333;28;20036;-51
2022/10/10 03:00:48;;;;;;;10.07;7.50;;;6.80;99.90;;;;;;5076524;28;20048;-49
2022/10/10 03:03:15;;;;;;;11.65;7.38;;;6.80;99.90;;;;;;5071027;28;20065;-50
2022/10/10 03:05:41;;;;;;;8.95;7.25;;;6.80;99.90;;;;;;5078586;28;20155;-48
2022/10/10 03:08:07;;;;;;;13.60;7.38;;;6.80;99.90;;;;;;5060497;28;20498;-52
2022/10/10 03:10:33;;;;;;;10.05;7.60;;;6.80;99.90;;;;;;5078487;28;20052;-38
2022/10/10 03:12:59;;;;;;;9.52;8.40;;;6.70;99.90;;;;;;5079712;28;20054;-37
2022/10/10 03:15:25;;;;;;;11.05;8.00;;;6.70;99.90;;;;;;5078132;28;20083;-38
2022/10/10 03:17:55;;;;;;;10.32;7.35;;;6.70;99.90;;;;;;5072838;28;20047;-38
2022/10/10 03:20:21;;;;;;;9.70;7.82;;;6.70;99.90;;;;;;5072527;28;20082;-38
2022/10/10 03:22:47;;;;;;;10.07;8.15;;;6.70;99.90;;;;;;5073430;28;20048;-38
2022/10/10 03:25:13;;;;;;;11.48;7.60;;;6.70;99.90;;;;;;5089421;28;20040;-37
2022/10/10 03:27:40;;;;;;;12.10;8.52;;;6.70;99.90;;;;;;5056218;28;20146;-37
2022/10/10 03:30:06;;;;;;;9.75;8.27;;;6.70;99.90;;;;;;5072321;28;20048;-37
2022/10/10 03:32:32;;;;;;;10.82;8.07;;;6.70;99.90;;;;;;5072911;28;20510;-37
2022/10/10 03:34:59;;;;;;;10.48;7.95;;;6.70;99.90;;;;;;5056537;28;20056;-38
2022/10/10 03:37:25;;;;;;;9.32;7.30;;;6.70;99.90;;;;;;5072994;28;20842;-38
2022/10/10 03:39:51;;;;;;;10.98;7.72;;;6.60;99.90;;;;;;5073834;28;20063;-38
2022/10/10 03:42:17;;;;;;;9.48;8.43;;;6.60;99.90;;;;;;5057230;28;20072;-38
2022/10/10 03:44:43;;;;;;;9.25;8.20;;;6.60;99.90;;;;;;5073942;28;20072;-38
2022/10/10 03:47:10;;;;;;;10.95;8.68;;;6.70;99.90;;;;;;5073021;28;20595;-39
2022/10/10 03:49:36;;;;;;;10.73;8.25;;;6.70;99.90;;;;;;5073820;28;20048;-38
2022/10/10 03:52:02;;;;;;;12.27;8.00;;;6.60;99.90;;;;;;5070976;28;20806;-38
2022/10/10 03:54:29;;;;;;;11.90;8.10;;;6.60;99.90;;;;;;5078313;28;20056;-38
2022/10/10 03:56:55;;;;;;;10.32;7.75;;;6.60;99.90;;;;;;5071109;28;20040;-38
2022/10/10 03:59:21;;;;;;;11.00;8.80;;;6.60;99.90;;;;;;5073933;28;20035;-39
2022/10/10 04:01:47;;;;;;;10.95;7.82;;;6.70;99.90;;;;;;5072439;28;20040;-39
2022/10/10 04:04:13;;;;;;;8.27;7.13;;;6.60;99.90;;;;;;5075522;28;20044;-52
2022/10/10 04:06:39;;;;;;;12.23;8.25;;;6.60;99.90;;;;;;5073568;28;20128;-51
2022/10/10 04:09:05;;;;;;;10.23;9.13;;;6.60;99.90;;;;;;5071922;28;20598;-53
2022/10/10 04:11:32;;;;;;;13.05;8.35;;;6.60;99.90;;;;;;5072552;28;20525;-51
2022/10/10 04:13:58;;;;;;;10.30;8.52;;;6.60;99.90;;;;;;5072909;28;20074;-50
2022/10/10 04:16:24;;;;;;;9.77;8.07;;;6.60;99.90;;;;;;5073660;28;20487;-50
2022/10/10 04:18:50;;;;;;;14.02;8.75;;;6.60;99.90;;;;;;5036633;28;20143;-50
2022/10/10 04:21:16;;;;;;;10.50;8.45;;;6.60;99.90;;;;;;5072888;28;20054;-50
2022/10/10 04:23:43;;;;;;;12.43;8.80;;;6.60;99.90;;;;;;5075201;28;20052;-50
2022/10/10 04:26:09;;;;;;;9.70;8.25;;;6.60;99.90;;;;;;5066191;28;20047;-49
2022/10/10 04:28:35;;;;;;;13.35;9.20;;;6.60;99.90;;;;;;5074894;28;20499;-39
2022/10/10 04:31:01;;;;;;;15.35;9.50;;;6.60;99.90;;;;;;5070426;28;20105;-39
2022/10/10 04:33:27;;;;;;;11.48;8.68;;;6.70;99.90;;;;;;5070476;28;20877;-39
2022/10/10 04:35:53;;;;;;;11.85;9.60;;;6.70;99.90;;;;;;5076573;28;20048;-39
2022/10/10 04:38:21;;;;;;;9.88;7.85;;;6.70;99.90;;;;;;5040669;28;20062;-38
2022/10/10 04:40:51;;;;;;;16.70;8.40;;;6.70;99.90;;;;;;5044389;28;20413;-39
2022/10/10 04:43:18;;;;;;;13.02;9.73;;;6.70;99.90;;;;;;5074518;28;20491;-39
2022/10/10 04:45:44;;;;;;;12.18;9.20;;;6.70;99.90;;;;;;5076044;28;20044;-39
2022/10/10 04:48:11;;;;;;;15.82;10.43;;;6.70;99.90;;;;;;5050959;28;20118;-39
2022/10/10 04:50:37;;;;;;;13.85;10.18;;;6.70;99.90;;;;;;5032932;28;20044;-39
2022/10/10 04:53:03;;;;;;;15.57;9.23;;;6.70;99.90;;;;;;5053447;28;20537;-39
2022/10/10 04:55:29;;;;;;;11.55;9.63;;;6.70;99.90;;;;;;5054685;28;20048;-40
2022/10/10 04:57:55;;;;;;;11.32;9.13;;;6.70;99.90;;;;;;5069114;28;20177;-52
2022/10/10 05:00:22;;;;;;;11.98;9.95;;;6.60;99.90;;;;;;5048278;28;20051;-50
2022/10/10 05:02:48;;;;;;;12.35;10.25;;;6.70;99.90;;;;;;5068113;28;20051;-38
2022/10/10 05:05:15;;;;;;;13.27;10.52;;;6.70;99.90;;;;;;5066837;28;20051;-39
2022/10/10 05:07:42;;;;;;;10.88;9.35;;;6.70;99.90;;;;;;5069642;28;20051;-39
2022/10/10 05:10:08;;;;;;;10.98;9.18;;;6.70;99.90;;;;;;5071978;28;20044;-39
2022/10/10 05:12:34;;;;;;;12.13;9.40;;;6.70;99.90;;;;;;5073648;28;21694;-37
2022/10/10 05:15:00;;;;;;;11.63;9.07;;;6.70;99.90;;;;;;5061211;28;20078;-50
2022/10/10 05:17:26;;;;;;;13.10;9.77;;;6.70;99.90;;;;;;5074855;28;20044;-50
2022/10/10 05:19:52;;;;;;;14.57;10.50;;;6.60;99.90;;;;;;5076154;28;20052;-52
2022/10/10 05:22:19;;;;;;;12.52;9.35;;;6.60;99.90;;;;;;5053812;28;20048;-50
2022/10/10 05:24:45;;;;;;;11.10;9.85;;;6.70;99.90;;;;;;5071007;28;20052;-38
2022/10/10 05:27:11;;;;;;;11.50;9.50;;;6.70;99.90;;;;;;5070154;28;20155;-38
2022/10/10 05:29:38;;;;;;;13.13;9.43;;;6.70;99.90;;;;;;5079392;28;20052;-50
2022/10/10 05:32:04;;;;;;;15.80;10.30;;;6.70;99.90;;;;;;5077819;28;20048;-49
2022/10/10 05:34:30;;;;;;;11.57;9.80;;;6.70;99.90;;;;;;5060563;28;20051;-50
2022/10/10 05:36:56;;;;;;;14.85;10.40;;;6.70;99.90;;;;;;5077956;28;20040;-53
2022/10/10 05:39:23;;;;;;;12.93;10.18;;;6.70;99.90;;;;;;5075222;28;20048;-38
2022/10/10 05:41:49;;;;;;;12.98;9.95;;;6.70;99.90;;;;;;5052495;28;20407;-40
2022/10/10 05:44:15;;;;;;;14.35;10.40;;;6.70;99.90;;;;;;5067359;28;20392;-38
2022/10/10 05:46:42;;;;;;;12.38;10.00;;;6.60;99.90;;;;;;5039924;28;20122;-37
2022/10/10 05:49:08;;;;;;;13.48;9.65;;;6.60;99.90;;;;;;5071094;28;20080;-39
2022/10/10 05:51:34;;;;;;;14.93;11.52;;;6.60;99.90;;;;;;5066852;28;20109;-38
2022/10/10 05:54:00;;;;;;;13.68;10.50;;;6.60;99.90;;;;;;5056868;28;20052;-38
2022/10/10 05:56:27;;;;;;;12.77;10.35;;;6.50;99.90;;;;;;5073780;28;20043;-38
2022/10/10 05:58:53;;;;;;;13.73;10.82;;;6.50;99.90;;;;;;5079067;28;20114;-38
2022/10/10 06:01:19;;;;;;;15.18;10.50;;;6.50;99.90;;;;;;5075961;28;20048;-38
2022/10/10 06:03:51;;;;;;;15.18;10.48;;;6.50;99.90;;;;;;5058786;28;20752;-38
2022/10/10 06:06:18;;;;;;;16.20;10.30;;;6.50;99.90;;;;;;5072374;28;20074;-38
2022/10/10 06:08:45;;;;;;;16.77;10.90;;;6.50;99.90;;;;;;5078396;28;20051;-38
2022/10/10 06:11:11;;;;;;;14.32;10.50;;;6.50;99.90;;;;;;5054678;28;20051;-52
2022/10/10 06:13:38;;;;;;;15.15;10.48;;;6.60;99.90;;;;;;5074306;28;20047;-50
2022/10/10 06:16:04;;;;;;;15.45;11.35;;;6.50;99.90;;;;;;5076887;28;20039;-51
2022/10/10 06:18:31;;;;;;;14.10;10.43;;;6.50;99.90;;;;;;5081197;28;21573;-48
2022/10/10 06:21:01;;;;;;;13.32;10.38;;;6.60;99.90;;;;;;5075989;28;20071;-50
2022/10/10 06:23:27;;;;;;;11.55;10.10;;;6.60;99.90;;;;;;5068629;28;20051;-52
2022/10/10 06:25:54;;;;;;;19.17;13.63;;;6.70;99.90;;;;;;5057040;28;20147;-39
2022/10/10 06:28:20;;;;;;;13.95;10.80;;;6.70;99.90;;;;;;5094447;28;20051;-39
2022/10/10 06:30:49;;;;;;;14.20;10.68;;;6.80;99.90;;;;;;5076579;28;20060;-38
2022/10/10 06:33:17;;;;;;;16.02;11.55;;;6.90;99.90;;;;;;5080467;28;20068;-39
2022/10/10 06:35:46;;;;;;;16.70;10.93;;;6.90;99.90;;;;;;5081218;28;20840;-38
2022/10/10 06:38:15;;;;;;;13.88;11.13;;;7.00;99.90;;;;;;5079950;28;20078;-39
2022/10/10 06:40:42;;;;;;;12.88;9.50;;;7.00;99.90;;;;;;5061933;28;20159;-52
2022/10/10 06:43:12;;;;;;;13.35;11.25;;;7.10;99.90;;;;;;5077630;28;20043;-51
2022/10/10 06:45:42;;;;;;;13.50;10.10;;;7.20;99.90;;;;;;5071610;28;20052;-53
2022/10/10 06:48:09;;;;;;;13.55;10.70;;;7.20;99.90;;;;;;5071328;28;20046;-53
2022/10/10 06:50:36;;;;;;;15.02;10.68;;;7.30;99.90;;;;;;5074488;28;20036;-52
2022/10/10 06:53:03;;;;;;;14.45;10.95;;;7.30;99.90;;;;;;5074921;28;20068;-53
2022/10/10 06:55:29;;;;;;;14.00;10.27;;;7.40;99.90;;;;;;5060130;28;20400;-50
2022/10/10 06:57:56;;;;;;;14.45;10.75;;;7.50;99.90;;;;;;5070628;28;20032;-51
2022/10/10 07:00:23;;;;;;;12.77;11.38;;;7.60;99.90;;;;;;5077454;28;20101;-51
2022/10/10 07:02:49;;;;;;;13.45;11.02;;;7.70;99.90;;;;;;5077503;28;20063;-51
2022/10/10 07:05:17;;;;;;;12.45;9.43;;;7.90;99.90;;;;;;5057967;28;20117;-49
2022/10/10 07:07:45;;;;;;;17.23;10.32;;;8.00;99.90;;;;;;5070974;28;20111;-50
2022/10/10 07:10:13;;;;;;;11.93;9.38;;;8.20;99.90;;;;;;5076870;28;20138;-53
2022/10/10 07:12:39;;;;;;;15.88;9.48;;;8.50;99.90;;;;;;5077250;28;20135;-40
2022/10/10 07:15:06;;;;;;;11.95;8.77;;;8.60;99.90;;;;;;5075794;28;20160;-51
2022/10/10 07:17:33;;;;;;;19.40;13.77;;;8.80;99.90;;;;;;5079573;28;20068;-49
2022/10/10 07:20:00;;;;;;;13.38;9.27;;;9.20;99.90;;;;;;5057465;28;20079;-51
2022/10/10 07:22:27;;;;;;;13.20;8.70;;;9.60;99.90;;;;;;5073620;28;20178;-50
2022/10/10 07:24:53;;;;;;;11.35;8.32;;;9.80;99.90;;;;;;5064309;28;20492;-40
2022/10/10 07:27:19;;;;;;;10.82;7.55;;;9.90;99.90;;;;;;5069157;28;20498;-50
2022/10/10 07:29:46;;;;;;;10.60;7.93;;;10.00;99.90;;;;;;5065896;28;20114;-49
2022/10/10 07:32:12;;;;;;;11.82;8.10;;;10.20;99.90;;;;;;5068828;28;20060;-50
2022/10/10 07:34:38;;;;;;;8.25;6.95;;;10.40;99.90;;;;;;5051651;28;20053;-49
2022/10/10 07:37:04;;;;;;;12.43;8.00;;;10.50;99.90;;;;;;5073524;28;20047;-52
2022/10/10 07:39:31;;;;;;;10.38;7.63;;;10.60;99.90;;;;;;5068603;28;20052;-49
2022/10/10 07:41:57;;;;;;;9.88;7.93;;;10.60;99.90;;;;;;5054434;28;20044;-53
2022/10/10 07:44:23;;;;;;;11.25;7.75;;;10.60;99.90;;;;;;5050932;28;20068;-52
2022/10/10 07:46:49;;;;;;;11.95;8.52;;;10.50;99.90;;;;;;5072655;28;20543;-48
2022/10/10 07:49:16;;;;;;;10.05;7.82;;;10.60;99.90;;;;;;5048414;28;20139;-51
2022/10/10 07:51:42;;;;;;;8.73;7.28;;;10.80;99.90;;;;;;5064218;28;20049;-53
2022/10/10 07:54:09;;;;;;;9.38;8.13;;;11.00;99.90;;;;;;5088954;28;20078;-53
2022/10/10 07:56:35;;;;;;;9.13;7.85;;;11.30;99.90;;;;;;5071357;28;20087;-48
2022/10/10 07:59:02;;;;;;;11.00;7.93;;;11.80;99.90;;;;;;5067781;28;20089;-52
2022/10/10 08:01:28;;;;;;;14.00;7.32;;;12.30;99.90;;;;;;5063362;28;20575;-49
2022/10/10 08:03:57;;;;;;;10.27;7.05;;;12.60;99.90;;;;;;5064929;28;20083;-53
2022/10/10 08:06:23;;;;;;;11.10;7.47;;;13.30;99.90;;;;;;5063368;28;20052;-48
2022/10/10 08:08:49;;;;;;;10.55;7.10;;;13.70;99.90;;;;;;5078669;28;20109;-48
2022/10/10 08:11:17;;;;;;;8.80;6.60;;;14.00;99.90;;;;;;5050274;28;20463;-50
2022/10/10 08:13:43;;;;;;;11.15;7.10;;;14.00;99.90;;;;;;5071214;28;20048;-50
2022/10/10 08:16:09;;;;;;;9.98;6.32;;;14.40;99.90;;;;;;5066843;28;20044;-49
2022/10/10 08:18:35;;;;;;;12.35;6.50;;;14.60;99.90;;;;;;5067127;28;20074;-51
2022/10/10 08:21:05;;;;;;;12.10;7.00;;;14.70;99.90;;;;;;5069057;28;20403;-52
2022/10/10 08:23:31;;;;;;;11.25;6.70;;;14.60;99.90;;;;;;5080497;28;20040;-52
2022/10/10 08:25:59;;;;;;;10.35;7.10;;;14.40;99.90;;;;;;5073232;28;20084;-50
2022/10/10 08:28:25;;;;;;;8.98;7.35;;;14.10;99.90;;;;;;5089274;28;20048;-40
2022/10/10 08:30:52;;;;;;;10.30;6.72;;;14.00;99.90;;;;;;5070597;28;20051;-49
2022/10/10 08:33:18;;;;;;;10.40;7.55;;;13.90;99.90;;;;;;5064948;28;20478;-51
2022/10/10 08:35:45;;;;;;;9.10;7.75;;;13.70;99.90;;;;;;5066297;28;20055;-48
2022/10/10 08:38:12;;;;;;;10.55;7.28;;;13.60;99.90;;;;;;5052387;28;20048;-39
2022/10/10 08:40:48;;;;;;;11.00;7.00;;;13.70;99.90;;;;;;5071163;28;20554;-40
2022/10/10 08:43:31;;;;;;;9.75;7.45;;;13.60;99.90;;;;;;5068923;28;20556;-41
2022/10/10 08:46:02;;;;;;;10.68;7.82;;;13.80;99.90;;;;;;5045583;28;20040;-39
2022/10/10 08:48:30;;;;;;;10.40;7.07;;;14.40;99.90;;;;;;5069518;28;20058;-41
2022/10/10 08:51:00;;;;;;;8.70;6.80;;;14.60;99.90;;;;;;5070526;28;20044;-40
2022/10/10 08:53:34;;;;;;;12.07;7.15;;;14.60;99.90;;;;;;5068668;28;20055;-57
2022/10/10 08:56:01;;;;;;;9.68;7.20;;;14.80;99.90;;;;;;5065599;28;20672;-41
2022/10/10 08:58:51;;;;;;;10.57;7.15;;;15.20;99.90;;;;;;5070670;28;20131;-39
2022/10/10 09:01:23;;;;;;;8.32;6.78;;;15.50;99.90;;;;;;5068067;28;20045;-39
2022/10/10 09:03:50;;;;;;;9.90;7.43;;;15.80;99.90;;;;;;5064882;28;20571;-41
2022/10/10 09:06:50;;;;;;;8.02;7.10;;;16.40;99.90;;;;;;5066713;28;20052;-42
2022/10/10 09:09:34;;;;;;;7.65;6.65;;;16.50;99.90;;;;;;5071784;28;20052;-40
2022/10/10 09:12:06;;;;;;;9.25;6.82;;;16.40;99.90;;;;;;5073872;28;20788;-40
2022/10/10 09:14:37;;;;;;;11.48;7.03;;;17.00;99.90;;;;;;5074134;28;20065;-40
2022/10/10 09:17:32;;;;;;;11.77;7.05;;;17.50;99.90;;;;;;5068865;28;20639;-41
2022/10/10 09:20:23;;;;;;;8.65;7.00;;;17.80;99.90;;;;;;5063880;28;20143;-40
2022/10/10 09:23:19;;;;;;;9.13;6.53;;;18.10;99.90;;;;;;5064872;28;20057;-40
2022/10/10 09:26:06;;;;;;;8.88;6.93;;;18.60;99.90;;;;;;5057226;28;20487;-41
2022/10/10 09:28:57;;;;;;;8.90;6.90;;;19.00;99.90;;;;;;5063209;28;20132;-51
2022/10/10 09:31:43;;;;;;;11.18;6.05;;;18.80;99.90;;;;;;5072309;28;20103;-53
2022/10/10 09:34:21;;;;;;;7.85;6.25;;;18.80;99.90;;;;;;5078182;28;20127;-49
2022/10/10 09:36:48;;;;;;;9.40;6.55;;;18.90;99.90;;;;;;5077058;28;20601;-51
2022/10/10 09:39:31;;;;;;;11.82;6.60;;;18.70;99.90;;;;;;5075873;28;20059;-52
2022/10/10 09:42:00;;;;;;;9.65;5.93;;;19.40;99.90;;;;;;5070302;28;20040;-42
2022/10/10 09:44:26;;;;;;;9.13;6.80;;;19.90;99.90;;;;;;5071463;28;20044;-50
2022/10/10 09:46:54;;;;;;;9.35;5.70;;;20.00;99.90;;;;;;5073385;28;20044;-41
2022/10/10 09:49:20;;;;;;;8.82;5.95;;;20.50;99.90;;;;;;5041113;28;20082;-41
2022/10/10 09:51:48;;;;;;;8.18;5.93;;;21.10;99.90;;;;;;5070683;28;20048;-40
2022/10/10 09:54:16;;;;;;;9.88;5.93;;;21.20;99.90;;;;;;5080956;28;20073;-43
2022/10/10 09:56:52;;;;;;;7.95;5.82;;;21.10;99.90;;;;;;5074700;28;20047;-40
2022/10/10 09:59:39;;;;;;;8.00;5.95;;;20.50;99.90;;;;;;5072635;28;20052;-41
2022/10/10 10:02:20;;;;;;;8.88;5.90;;;20.20;99.90;;;;;;5066740;28;20530;-41
2022/10/10 10:04:48;;;;;;;8.55;5.90;;;19.80;99.90;;;;;;5077020;28;20100;-42
2022/10/10 10:07:23;;;;;;;8.32;6.15;;;19.20;99.90;;;;;;5067851;28;20051;-42
2022/10/10 10:10:01;;;;;;;9.80;6.47;;;18.90;99.90;;;;;;5075559;28;20051;-51
2022/10/10 10:12:41;;;;;;;10.38;6.10;;;18.40;99.90;;;;;;5076028;28;20187;-52
2022/10/10 10:15:24;;;;;;;9.23;6.13;;;18.10;99.90;;;;;;5070222;28;20048;-49
2022/10/10 10:18:09;;;;;;;9.43;5.90;;;18.30;99.90;;;;;;5066981;28;20059;-51
2022/10/10 10:20:38;;;;;;;8.70;6.60;;;18.30;99.90;;;;;;5071395;28;20431;-54
2022/10/10 10:23:05;;;;;;;9.65;6.43;;;18.30;99.90;;;;;;5069584;28;20079;-52
2022/10/10 10:25:38;;;;;;;8.40;6.40;;;18.20;99.90;;;;;;5077683;28;20047;-51
2022/10/10 10:28:10;;;;;;;9.65;6.13;;;18.60;99.90;;;;;;5069620;28;20404;-52
2022/10/10 10:30:37;;;;;;;11.27;6.45;;;18.70;99.90;;;;;;5090503;28;20048;-53
2022/10/10 10:33:36;;;;;;;10.43;5.70;;;18.60;99.90;;;;;;5068622;28;20079;-50
2022/10/10 10:36:15;;;;;;;10.55;7.15;;;18.90;99.90;;;;;;5066494;28;20051;-50
2022/10/10 10:38:50;;;;;;;11.13;6.65;;;18.80;99.90;;;;;;5068575;28;20048;-52
2022/10/10 10:41:28;;;;;;;8.07;6.60;;;19.00;99.90;;;;;;5068666;28;20040;-52
2022/10/10 10:44:16;;;;;;;9.07;6.35;;;19.00;99.90;;;;;;5072534;28;20029;-51
2022/10/10 10:47:30;;;;;;;8.00;5.97;;;19.20;99.90;;;;;;5077039;28;20145;-53
2022/10/10 10:50:24;;;;;;;9.40;6.13;;;19.40;99.90;;;;;;5035546;28;20056;-53
2022/10/10 10:53:03;;;;;;;11.25;5.85;;;19.20;99.90;;;;;;5054421;28;20048;-52
2022/10/10 10:55:42;;;;;;;10.20;6.07;;;18.70;99.90;;;;;;5050012;28;20064;-49
2022/10/10 10:58:41;;;;;;;9.45;6.10;;;18.40;99.90;;;;;;5070703;28;20037;-49
2022/10/10 11:01:42;;;;;;;8.98;6.25;;;18.10;99.90;;;;;;5072850;28;20542;-52
2022/10/10 11:04:24;;;;;;;11.48;6.93;;;17.60;99.90;;;;;;5065996;28;20045;-51
2022/10/10 11:06:57;;;;;;;13.02;6.60;;;17.30;99.90;;;;;;5069702;28;20044;-49
2022/10/10 11:09:43;;;;;;;11.40;6.18;;;17.30;99.90;;;;;;5072077;28;20048;-48
2022/10/10 11:12:24;;;;;;;8.52;6.60;;;17.20;99.90;;;;;;5062393;28;20051;-49
2022/10/10 11:14:56;;;;;;;9.43;6.78;;;17.10;99.90;;;;;;5071221;28;20806;-54
2022/10/10 11:17:33;;;;;;;10.27;6.53;;;17.00;99.90;;;;;;5072061;28;20044;-49
2022/10/10 11:20:22;;;;;;;12.65;7.30;;;17.00;99.90;;;;;;5073567;28;20065;-50
2022/10/10 11:23:00;;;;;;;10.18;6.50;;;17.00;99.90;;;;;;5069150;28;20113;-51
2022/10/10 11:25:36;;;;;;;10.88;6.75;;;16.70;99.90;;;;;;5072039;28;20155;-50
2022/10/10 11:28:12;;;;;;;10.50;7.10;;;16.30;99.90;;;;;;5067719;28;20119;-52
2022/10/10 11:30:45;;;;;;;11.20;7.05;;;16.10;99.90;;;;;;5054860;28;20091;-52
2022/10/10 11:33:27;;;;;;;12.32;6.88;;;16.00;99.90;;;;;;5053173;28;20130;-52
2022/10/10 11:36:05;;;;;;;10.52;6.60;;;16.00;99.90;;;;;;5071705;28;20117;-51
2022/10/10 11:38:42;;;;;;;12.15;7.03;;;16.00;99.90;;;;;;5069752;28;20143;-51
2022/10/10 11:41:13;;;;;;;11.85;7.85;;;15.90;99.90;;;;;;5067726;28;20148;-51
2022/10/10 11:43:45;;;;;;;12.20;8.03;;;15.90;99.90;;;;;;5065721;28;20148;-48
2022/10/10 11:46:36;;;;;;;9.57;6.95;;;15.80;99.90;;;;;;5069648;28;20338;-39
2022/10/10 11:49:12;;;;;;;11.30;6.93;;;15.80;99.90;;;;;;5060538;28;20063;-42
2022/10/10 11:52:15;;;;;;;13.25;7.35;;;15.80;99.90;;;;;;5068420;28;20048;-42
2022/10/10 11:55:01;;;;;;;14.05;7.85;;;15.60;99.90;;;;;;5071465;28;20048;-42
2022/10/10 11:57:52;;;;;;;11.48;7.93;;;15.60;99.90;;;;;;5067603;28;20114;-42
2022/10/10 12:00:20;;;;;;;13.30;7.85;;;15.50;99.90;;;;;;5065231;28;20818;-41
2022/10/10 12:02:47;;;;;;;12.32;7.40;;;15.40;99.90;;;;;;5076913;28;20055;-42
2022/10/10 12:05:24;;;;;;;11.02;8.15;;;15.40;99.90;;;;;;5071344;28;20056;-44
2022/10/10 12:08:01;;;;;;;13.82;8.05;;;15.50;99.90;;;;;;5072433;28;20047;-46
2022/10/10 12:10:38;;;;;;;12.15;7.78;;;15.50;99.90;;;;;;5067375;28;20048;-45
2022/10/10 12:13:19;;;;;;;10.35;7.97;;;15.50;99.90;;;;;;5067032;28;20036;-44
2022/10/10 12:15:50;;;;;;;13.55;7.80;;;15.50;99.90;;;;;;5069201;28;20439;-43
2022/10/10 12:18:49;;;;;;;9.88;7.43;;;15.50;99.90;;;;;;5071882;28;20032;-42
2022/10/10 12:21:19;;;;;;;17.25;8.50;;;15.40;99.90;;;;;;5075014;28;20057;-43
2022/10/10 12:23:50;;;;;;;11.98;8.05;;;15.40;99.90;;;;;;5069213;28;20090;-48
2022/10/10 12:26:20;;;;;;;12.83;7.83;;;15.50;99.90;;;;;;5069390;28;20059;-47
2022/10/10 12:29:04;;;;;;;8.93;7.38;;;15.50;99.90;;;;;;5068581;28;20302;-42
2022/10/10 12:31:33;;;;;;;12.93;7.68;;;15.60;99.90;;;;;;5067826;28;20105;-42
2022/10/10 12:34:21;;;;;;;11.75;7.43;;;15.60;99.90;;;;;;5070747;28;20079;-46
2022/10/10 12:37:10;;;;;;;17.30;8.45;;;15.60;99.90;;;;;;5047297;28;20127;-48
2022/10/10 12:39:38;;;;;;;13.73;8.57;;;15.60;99.90;;;;;;5069539;28;20044;-47
2022/10/10 12:42:29;;;;;;;11.55;8.98;;;15.50;99.90;;;;;;5069355;28;20092;-43
2022/10/10 12:44:55;;;;;;;12.43;8.57;;;15.50;99.90;;;;;;5068762;28;20057;-44
2022/10/10 12:47:43;;;;;;;14.30;9.35;;;15.40;99.90;;;;;;5065700;28;20094;-46
2022/10/10 12:50:33;;;;;;;13.32;9.23;;;15.30;99.90;;;;;;5064926;28;20126;-45
2022/10/10 12:53:10;;;;;;;16.05;10.20;;;15.20;99.90;;;;;;5067427;28;20040;-45
2022/10/10 12:55:47;;;;;;;12.25;9.60;;;15.00;99.90;;;;;;5071559;28;20052;-45
2022/10/10 12:58:25;;;;;;;14.57;9.45;;;15.10;99.90;;;;;;5068762;28;20075;-45
2022/10/10 13:00:54;;;;;;;15.88;10.38;;;15.00;99.90;;;;;;5064859;28;20140;-42
2022/10/10 13:03:31;;;;;;;15.93;10.90;;;15.00;99.90;;;;;;5049277;28;20056;-42
2022/10/10 13:06:15;;;;;;;15.57;10.73;;;15.00;99.90;;;;;;5070720;28;20048;-42
2022/10/10 13:08:43;;;;;;;19.63;12.43;;;14.90;99.90;;;;;;5051759;28;20052;-44
2022/10/10 13:11:12;;;;;;;17.02;11.68;;;14.80;99.90;;;;;;5076900;28;20094;-45